WetterOnline ( https://www.wetteronline.de )

Wetter aktuell Elsfleth

Aktuelles Wetter: Bremerhaven (11m)

6-stündlich | Neueste Meldungen
Ortszeit Temperatur Wetter
Mi, 08.04. 14:00 17.9° C leicht bewölkt
Mi, 08.04. 8:00 10.4° C bewölkt
Mi, 08.04. 2:00 9.5° C wolkig
Di, 07.04. 20:00 13.4° C wolkig
Di, 07.04. 14:00 9.8° C leicht bewölkt
Di, 07.04. 8:00 6.6° C Nebel
Di, 07.04. 2:00 9.2° C bewölkt
Mo, 06.04. 20:00 20.3° C wolkenlos
Ortszeit Temperatur Wetter
Mi, 08.04. 14:30 14.7° C leicht bewölkt
Mi, 08.04. 14:20 14.7° C leicht bewölkt
Mi, 08.04. 14:10 14.7° C wolkig
Mi, 08.04. 14:00 17.9° C leicht bewölkt
Mi, 08.04. 13:50 17.9° C wolkig
Mi, 08.04. 13:40 17.8° C wolkig
Mi, 08.04. 13:30 17.0° C wolkig
Mi, 08.04. 13:00 15.2° C leicht bewölkt
Ortszeit Relative Feuchte Sichtweite
Mi, 08.04. 14:00 55% 26 km
Mi, 08.04. 8:00 56% 30 km
Mi, 08.04. 2:00 62% 30 km
Di, 07.04. 20:00 48% 40 km
Di, 07.04. 14:00 87% 8 km
Di, 07.04. 8:00 99% 100 m
Di, 07.04. 2:00 92% 4.2 km
Mo, 06.04. 20:00 33% 35 km
Ortszeit Relative Feuchte Sichtweite
Mi, 08.04. 14:30 62% 15 km
Mi, 08.04. 14:20 62% -
Mi, 08.04. 14:10 64% -
Mi, 08.04. 14:00 55% 26 km
Mi, 08.04. 13:50 55% -
Mi, 08.04. 13:40 54% -
Mi, 08.04. 13:30 56% 25 km
Mi, 08.04. 13:00 62% 25 km
Ortszeit Niederschlagsmenge Niederschlagsart
Mi, 08.04. 14:00 0.0 l/m2 in 6 Std. -
Mi, 08.04. 8:00 0.0 l/m2 in 12 Std. -
Mi, 08.04. 2:00 0.0 l/m2 in 6 Std. -
Di, 07.04. 20:00 0.1 l/m2 in 12 Std. -
Di, 07.04. 14:00 0.1 l/m2 in 6 Std. -
Di, 07.04. 8:00 0.0 l/m2 in 12 Std. -
Di, 07.04. 2:00 0.0 l/m2 in 6 Std. -
Mo, 06.04. 20:00 0.0 l/m2 in 12 Std. -
Ortszeit Niederschlagsmenge Niederschlagsart
Mi, 08.04. 14:30 0.0 l/m2 in 1 Std. -
Mi, 08.04. 14:20 keine Meldung -
Mi, 08.04. 14:10 keine Meldung -
Mi, 08.04. 14:00 0.0 l/m2 in 1 Std. -
Mi, 08.04. 13:50 keine Meldung -
Mi, 08.04. 13:40 keine Meldung -
Mi, 08.04. 13:30 0.0 l/m2 in 1 Std. -
Mi, 08.04. 13:00 0.0 l/m2 in 1 Std. -
Ortszeit Stärke Spitze Richtung
km/h Bft. km/h Grad Sektor
Mi, 08.04. 14:00 11 2 25 230° SW
Mi, 08.04. 8:00 13 3 28 120° SO
Mi, 08.04. 2:00 15 3 24 90° O
Di, 07.04. 20:00 14 3 29 50° NO
Di, 07.04. 14:00 14 3 18 310° NW
Di, 07.04. 8:00 7 2 22 220° SW
Di, 07.04. 2:00 19 3 37 310° NW
Mo, 06.04. 20:00 7 2 29 180° S
Ortszeit Stärke Spitze Richtung
km/h Bft. km/h Grad Sektor
Mi, 08.04. 14:30 11 2 14 320° NW
Mi, 08.04. 14:20 11 2 - 320° NW
Mi, 08.04. 14:10 7 2 - 320° NW
Mi, 08.04. 14:00 11 2 14 230° SW
Mi, 08.04. 13:50 11 2 - 230° SW
Mi, 08.04. 13:40 9 2 - 230° SW
Mi, 08.04. 13:30 9 2 13 230° SW
Mi, 08.04. 13:00 13 3 19 220° SW
Ortszeit Untergrenze Bedeckung Gattung
total tief tief mittel hoch
Mi, 08.04. 14:00 7500 m 8/8 0/8 - - -
Mi, 08.04. 8:00 1800 m 7/8 7/8 - - -
Mi, 08.04. 2:00 9000 m 8/8 0/8 - - -
Di, 07.04. 20:00 9000 m 8/8 0/8 - - -
Di, 07.04. 14:00 10500 m 7/8 0/8 - - -
Di, 07.04. 8:00 <30 m 8/8 0/8 - - -
Di, 07.04. 2:00 720 m 8/8 7/8 - - -
Mo, 06.04. 20:00 - 0/8 0/8 - - -
Ortszeit Bedeckungsgrad in Achtel und Wolkenuntergrenze
Mi, 08.04. 14:30 5(7800m)
Mi, 08.04. 14:20 5(7800m)
Mi, 08.04. 14:10 8(7800m)
Mi, 08.04. 14:00 8(7500m)
Mi, 08.04. 13:50 8(7500m)
Mi, 08.04. 13:40 8(7500m)
Mi, 08.04. 13:30 4(7800m) 7(9000m) 8(10500m)
Mi, 08.04. 13:00 8(10500m) 5(10500m) 8(10500m)
Ortszeit Luftdruck NN (hPa) Tendenz (hPa in 3 Std.)
Mi, 08.04. 14:00 1025 - 1,3
Mi, 08.04. 8:00 1028 - 1,7
Mi, 08.04. 2:00 1031 - 1,0
Di, 07.04. 20:00 1032 - 0,6
Di, 07.04. 14:00 1034 + 0,5
Di, 07.04. 8:00 1031 + 2,3
Di, 07.04. 2:00 1026 + 2,7
Mo, 06.04. 20:00 1020 + 0,8
Ortszeit Luftdruck NN (hPa) Tendenz (hPa in 3 Std.)
Mi, 08.04. 14:30 1025 - 1,6
Mi, 08.04. 14:20 1025 keine Meldung
Mi, 08.04. 14:10 1025 keine Meldung
Mi, 08.04. 14:00 1025 - 1,3
Mi, 08.04. 13:50 1025 keine Meldung
Mi, 08.04. 13:40 1025 keine Meldung
Mi, 08.04. 13:30 1025 - 1,3
Mi, 08.04. 13:00 1026 - 1,3
Ortszeit Schneehöhe (cm)
Mi, 08.04. 14:00 0
Mi, 08.04. 8:00 0
Mi, 08.04. 2:00 0
Di, 07.04. 20:00 0
Di, 07.04. 14:00 0
Di, 07.04. 8:00 0
Di, 07.04. 2:00 0
Mo, 06.04. 20:00 0
Ortszeit Schneehöhe (cm)
Mi, 08.04. 14:30 0
Mi, 08.04. 14:20 0
Mi, 08.04. 14:10 0
Mi, 08.04. 14:00 0
Mi, 08.04. 13:50 0
Mi, 08.04. 13:40 0
Mi, 08.04. 13:30 0
Mi, 08.04. 13:00 0
Link zu dieser Seite / Seite empfehlen

Das Wetter in ...